sensor_id;sensor_type;location;lat;lon;timestamp;pressure;altitude;pressure_sealevel;temperature;humidity
73306;BME280;61530;51.158;0.880;2023-04-24T00:00:57;1001.17;;;7.5625;38.0492
73306;BME280;61530;51.158;0.880;2023-04-24T00:02:01;1001.19;;;7.5625;39.2233
73306;BME280;61530;51.158;0.880;2023-04-24T00:03:06;1001.2;;;7.4375;38.1171
73306;BME280;61530;51.158;0.880;2023-04-24T00:04:09;1001.23;;;7.4375;38.6905
73306;BME280;61530;51.158;0.880;2023-04-24T00:05:14;1001.24;;;7.4375;38.0606
73306;BME280;61530;51.158;0.880;2023-04-24T00:06:16;1001.27;;;7.4375;39.8024
73306;BME280;61530;51.158;0.880;2023-04-24T00:07:22;1001.22;;;7.4375;38.3297
73306;BME280;61530;51.158;0.880;2023-04-24T00:08:26;1001.22;;;7.375;38.5925
73306;BME280;61530;51.158;0.880;2023-04-24T00:09:29;1001.2;;;7.375;38.4387
73306;BME280;61530;51.158;0.880;2023-04-24T00:10:33;1001.19;;;7.375;37.6772
73306;BME280;61530;51.158;0.880;2023-04-24T00:11:38;1001.23;;;7.25;38.8922
73306;BME280;61530;51.158;0.880;2023-04-24T00:12:41;1001.21;;;7.25;39.5336
73306;BME280;61530;51.158;0.880;2023-04-24T00:13:45;1001.24;;;7.3125;40.0707
73306;BME280;61530;51.158;0.880;2023-04-24T00:14:48;1001.3;;;7.25;40.9966
73306;BME280;61530;51.158;0.880;2023-04-24T00:15:54;1001.31;;;7.125;40.2823
73306;BME280;61530;51.158;0.880;2023-04-24T00:16:58;1001.37;;;7.1875;40.0825
73306;BME280;61530;51.158;0.880;2023-04-24T00:18:02;1001.41;;;7.125;39.3336
73306;BME280;61530;51.158;0.880;2023-04-24T00:19:05;1001.41;;;7.125;39.5679
73306;BME280;61530;51.158;0.880;2023-04-24T00:20:11;1001.44;;;7.1875;40.6144
73306;BME280;61530;51.158;0.880;2023-04-24T00:21:13;1001.47;;;7.1875;40.2599
73306;BME280;61530;51.158;0.880;2023-04-24T00:22:17;1001.51;;;7.25;40.3633
73306;BME280;61530;51.158;0.880;2023-04-24T00:23:20;1001.51;;;7.1875;39.8081
73306;BME280;61530;51.158;0.880;2023-04-24T00:24:26;1001.5;;;7.25;40.0312
73306;BME280;61530;51.158;0.880;2023-04-24T00:25:30;1001.52;;;7.25;38.3714
73306;BME280;61530;51.158;0.880;2023-04-24T00:26:33;1001.57;;;7.25;39.5161
73306;BME280;61530;51.158;0.880;2023-04-24T00:27:37;1001.59;;;7.1875;39.0348
73306;BME280;61530;51.158;0.880;2023-04-24T00:28:42;1001.57;;;7.3125;38.2724
73306;BME280;61530;51.158;0.880;2023-04-24T00:29:45;1001.62;;;7.3125;39.1319
73306;BME280;61530;51.158;0.880;2023-04-24T00:30:49;1001.64;;;7.25;39.9112
73306;BME280;61530;51.158;0.880;2023-04-24T00:31:52;1001.65;;;7.25;39.7336
73306;BME280;61530;51.158;0.880;2023-04-24T00:32:58;1001.68;;;7.3125;39.081
73306;BME280;61530;51.158;0.880;2023-04-24T00:34:02;1001.67;;;7.1875;38.9443
73306;BME280;61530;51.158;0.880;2023-04-24T00:35:06;1001.68;;;7.25;39.6879
73306;BME280;61530;51.158;0.880;2023-04-24T00:36:09;1001.67;;;7.1875;39.5164
73306;BME280;61530;51.158;0.880;2023-04-24T00:37:14;1001.65;;;7.1875;39.322
73306;BME280;61530;51.158;0.880;2023-04-24T00:38:18;1001.66;;;7.1875;39.7051
73306;BME280;61530;51.158;0.880;2023-04-24T00:39:21;1001.66;;;7.1875;39.2764
73306;BME280;61530;51.158;0.880;2023-04-24T00:40:24;1001.66;;;7.1875;39.8537
73306;BME280;61530;51.158;0.880;2023-04-24T00:41:30;1001.67;;;7.125;40.431
73306;BME280;61530;51.158;0.880;2023-04-24T00:42:34;1001.68;;;7.125;39.7108
73306;BME280;61530;51.158;0.880;2023-04-24T00:43:37;1001.73;;;7.0625;41.0347
73306;BME280;61530;51.158;0.880;2023-04-24T00:44:41;1001.76;;;7.0;41.1158
73306;BME280;61530;51.158;0.880;2023-04-24T00:45:46;1001.81;;;7.0;40.6418
73306;BME280;61530;51.158;0.880;2023-04-24T00:46:50;1001.82;;;7.0625;40.5053
73306;BME280;61530;51.158;0.880;2023-04-24T00:47:53;1001.89;;;7.0;40.4421
73306;BME280;61530;51.158;0.880;2023-04-24T00:48:56;1001.84;;;6.9375;40.0136
73306;BME280;61530;51.158;0.880;2023-04-24T00:50:05;1001.86;;;6.9375;41.2383
73306;BME280;61530;51.158;0.880;2023-04-24T00:51:06;1001.85;;;6.9375;40.3723
73306;BME280;61530;51.158;0.880;2023-04-24T00:52:09;1001.87;;;6.9375;42.0204
73306;BME280;61530;51.158;0.880;2023-04-24T00:53:13;1001.88;;;6.9375;41.284
73306;BME280;61530;51.158;0.880;2023-04-24T00:54:18;1001.86;;;7.0;41.1599
73306;BME280;61530;51.158;0.880;2023-04-24T00:55:22;1001.94;;;6.9375;40.6288
73306;BME280;61530;51.158;0.880;2023-04-24T00:56:26;1001.92;;;7.0;41.2601
73306;BME280;61530;51.158;0.880;2023-04-24T00:57:29;1001.99;;;6.9375;41.1321
73306;BME280;61530;51.158;0.880;2023-04-24T00:58:34;1002.0;;;7.0;41.4005
73306;BME280;61530;51.158;0.880;2023-04-24T00:59:38;1001.99;;;6.9375;39.5794
73306;BME280;61530;51.158;0.880;2023-04-24T01:00:41;1002.0;;;6.9375;40.236
73306;BME280;61530;51.158;0.880;2023-04-24T01:01:45;1002.04;;;6.9375;39.7165
73306;BME280;61530;51.158;0.880;2023-04-24T01:02:50;1001.99;;;6.875;40.4755
73306;BME280;61530;51.158;0.880;2023-04-24T01:03:53;1002.02;;;6.875;40.8299
73306;BME280;61530;51.158;0.880;2023-04-24T01:04:57;1002.04;;;6.8125;41.1158
73306;BME280;61530;51.158;0.880;2023-04-24T01:06:00;1002.05;;;6.8125;39.5279
73306;BME280;61530;51.158;0.880;2023-04-24T01:07:06;1002.07;;;6.75;39.8192
73306;BME280;61530;51.158;0.880;2023-04-24T01:08:10;1002.1;;;6.8125;39.5451
73306;BME280;61530;51.158;0.880;2023-04-24T01:09:13;1002.13;;;6.8125;39.2137
73306;BME280;61530;51.158;0.880;2023-04-24T01:10:17;1002.14;;;6.8125;38.8193
73306;BME280;61530;51.158;0.880;2023-04-24T01:11:22;1002.13;;;6.8125;38.8306
73306;BME280;61530;51.158;0.880;2023-04-24T01:12:25;1002.13;;;6.875;40.5046
73306;BME280;61530;51.158;0.880;2023-04-24T01:13:29;1002.06;;;6.8125;40.6695
73306;BME280;61530;51.158;0.880;2023-04-24T01:14:33;1002.1;;;6.875;40.1164
73306;BME280;61530;51.158;0.880;2023-04-24T01:15:38;1002.16;;;6.9375;39.6651
73306;BME280;61530;51.158;0.880;2023-04-24T01:16:42;1002.14;;;6.9375;39.1279
73306;BME280;61530;51.158;0.880;2023-04-24T01:17:45;1002.19;;;6.875;39.3106
73306;BME280;61530;51.158;0.880;2023-04-24T01:18:49;1002.17;;;6.9375;40.3158
73306;BME280;61530;51.158;0.880;2023-04-24T01:19:54;1002.19;;;6.875;40.2525
73306;BME280;61530;51.158;0.880;2023-04-24T01:20:58;1002.16;;;6.875;41.4764
73306;BME280;61530;51.158;0.880;2023-04-24T01:22:02;1002.2;;;6.875;41.3004
73306;BME280;61530;51.158;0.880;2023-04-24T01:23:04;1002.2;;;6.9375;41.4278
73306;BME280;61530;51.158;0.880;2023-04-24T01:24:11;1002.25;;;6.9375;40.1501
73306;BME280;61530;51.158;0.880;2023-04-24T01:25:14;1002.24;;;6.875;40.8213
73306;BME280;61530;51.158;0.880;2023-04-24T01:26:17;1002.27;;;6.875;39.5737
73306;BME280;61530;51.158;0.880;2023-04-24T01:27:21;1002.23;;;6.875;39.6194
73306;BME280;61530;51.158;0.880;2023-04-24T01:28:26;1002.16;;;6.875;38.8884
73306;BME280;61530;51.158;0.880;2023-04-24T01:29:29;1002.24;;;6.875;39.7278
73306;BME280;61530;51.158;0.880;2023-04-24T01:30:33;1002.23;;;6.8125;40.4758
73306;BME280;61530;51.158;0.880;2023-04-24T01:31:36;1002.23;;;6.6875;38.9742
73306;BME280;61530;51.158;0.880;2023-04-24T01:32:42;1002.23;;;6.6875;40.0639
73306;BME280;61530;51.158;0.880;2023-04-24T01:33:46;1002.29;;;6.625;40.5208
73306;BME280;61530;51.158;0.880;2023-04-24T01:34:49;1002.28;;;6.75;40.1438
73306;BME280;61530;51.158;0.880;2023-04-24T01:35:53;1002.31;;;6.75;40.5033
73306;BME280;61530;51.158;0.880;2023-04-24T01:36:58;1002.31;;;6.8125;39.5337
73306;BME280;61530;51.158;0.880;2023-04-24T01:38:02;1002.31;;;6.75;39.5508
73306;BME280;61530;51.158;0.880;2023-04-24T01:39:06;1002.33;;;6.6875;40.1328
73306;BME280;61530;51.158;0.880;2023-04-24T01:40:09;1002.3;;;6.75;38.6194
73306;BME280;61530;51.158;0.880;2023-04-24T01:41:14;1002.29;;;6.75;39.4938
73306;BME280;61530;51.158;0.880;2023-04-24T01:42:18;1002.29;;;6.75;39.1968
73306;BME280;61530;51.158;0.880;2023-04-24T01:43:21;1002.31;;;6.6875;39.2766
73306;BME280;61530;51.158;0.880;2023-04-24T01:44:25;1002.33;;;6.6875;39.1965
73306;BME280;61530;51.158;0.880;2023-04-24T01:45:30;1002.34;;;6.5;39.2649
73306;BME280;61530;51.158;0.880;2023-04-24T01:46:33;1002.37;;;6.5625;38.0347
73306;BME280;61530;51.158;0.880;2023-04-24T01:47:38;1002.39;;;6.5625;38.687
73306;BME280;61530;51.158;0.880;2023-04-24T01:48:41;1002.42;;;6.625;38.064
73306;BME280;61530;51.158;0.880;2023-04-24T01:49:46;1002.42;;;6.5625;38.9499
73306;BME280;61530;51.158;0.880;2023-04-24T01:50:50;1002.48;;;6.5625;38.7846
73306;BME280;61530;51.158;0.880;2023-04-24T01:51:53;1002.5;;;6.5625;37.8008
73306;BME280;61530;51.158;0.880;2023-04-24T01:52:57;1002.5;;;6.5625;38.2687
73306;BME280;61530;51.158;0.880;2023-04-24T01:54:02;1002.51;;;6.625;37.3295
73306;BME280;61530;51.158;0.880;2023-04-24T01:55:06;1002.52;;;6.5625;38.6061
73306;BME280;61530;51.158;0.880;2023-04-24T01:56:09;1002.53;;;6.5;37.6381
73306;BME280;61530;51.158;0.880;2023-04-24T01:57:13;1002.54;;;6.625;37.8672
73306;BME280;61530;51.158;0.880;2023-04-24T01:58:18;1002.53;;;6.625;38.1704
73306;BME280;61530;51.158;0.880;2023-04-24T01:59:23;1002.52;;;6.5625;37.0073
73306;BME280;61530;51.158;0.880;2023-04-24T02:00:25;1002.54;;;6.5625;37.8207
73306;BME280;61530;51.158;0.880;2023-04-24T02:01:33;1002.52;;;6.625;37.7522
73306;BME280;61530;51.158;0.880;2023-04-24T02:02:34;1002.52;;;6.5625;38.978
73306;BME280;61530;51.158;0.880;2023-04-24T02:03:37;1002.5;;;6.6875;37.6729
73306;BME280;61530;51.158;0.880;2023-04-24T02:04:41;1002.54;;;6.6875;38.7605
73306;BME280;61530;51.158;0.880;2023-04-24T02:05:45;1002.56;;;6.75;37.8218
73306;BME280;61530;51.158;0.880;2023-04-24T02:06:50;1002.56;;;6.75;37.839
73306;BME280;61530;51.158;0.880;2023-04-24T02:07:54;1002.57;;;6.8125;36.7451
73306;BME280;61530;51.158;0.880;2023-04-24T02:08:57;1002.58;;;6.875;37.8613
73306;BME280;61530;51.158;0.880;2023-04-24T02:10:01;1002.6;;;6.8125;37.9415
73306;BME280;61530;51.158;0.880;2023-04-24T02:11:06;1002.61;;;6.875;37.6626
73306;BME280;61530;51.158;0.880;2023-04-24T02:12:09;1002.66;;;6.9375;37.3816
73306;BME280;61530;51.158;0.880;2023-04-24T02:13:13;1002.68;;;6.8125;38.4342
73306;BME280;61530;51.158;0.880;2023-04-24T02:14:16;1002.71;;;6.9375;37.6556
73306;BME280;61530;51.158;0.880;2023-04-24T02:15:22;1002.72;;;6.9375;38.634
73306;BME280;61530;51.158;0.880;2023-04-24T02:16:26;1002.7;;;6.9375;38.3417
73306;BME280;61530;51.158;0.880;2023-04-24T02:17:29;1002.7;;;7.0;37.9346
73306;BME280;61530;51.158;0.880;2023-04-24T02:18:33;1002.67;;;7.0;37.3563
73306;BME280;61530;51.158;0.880;2023-04-24T02:19:38;1002.69;;;6.9375;36.6963
73306;BME280;61530;51.158;0.880;2023-04-24T02:20:41;1002.66;;;6.8125;36.7946
73306;BME280;61530;51.158;0.880;2023-04-24T02:21:45;1002.63;;;7.0;36.8983
73306;BME280;61530;51.158;0.880;2023-04-24T02:22:48;1002.61;;;7.0;37.375
73306;BME280;61530;51.158;0.880;2023-04-24T02:23:54;1002.61;;;7.0;37.1739
73306;BME280;61530;51.158;0.880;2023-04-24T02:24:58;1002.6;;;7.0;38.3707
73306;BME280;61530;51.158;0.880;2023-04-24T02:26:01;1002.6;;;6.9375;36.8867
73306;BME280;61530;51.158;0.880;2023-04-24T02:27:05;1002.59;;;7.0;37.0644
73306;BME280;61530;51.158;0.880;2023-04-24T02:28:10;1002.65;;;7.0625;37.8433
73306;BME280;61530;51.158;0.880;2023-04-24T02:29:13;1002.61;;;7.0;36.8072
73306;BME280;61530;51.158;0.880;2023-04-24T02:30:17;1002.67;;;7.0;37.1384
73306;BME280;61530;51.158;0.880;2023-04-24T02:35:40;1002.65;;;6.9375;37.4868
73306;BME280;61530;51.158;0.880;2023-04-24T02:36:42;1002.62;;;7.0;37.716
73306;BME280;61530;51.158;0.880;2023-04-24T02:37:45;1002.6;;;7.0625;37.2174
73306;BME280;61530;51.158;0.880;2023-04-24T02:38:49;1002.63;;;7.0625;37.6352
73306;BME280;61530;51.158;0.880;2023-04-24T02:39:52;1002.61;;;7.0625;36.3747
73306;BME280;61530;51.158;0.880;2023-04-24T02:40:58;1002.61;;;7.0625;35.8122
73306;BME280;61530;51.158;0.880;2023-04-24T02:42:02;1002.61;;;6.9375;36.4522
73306;BME280;61530;51.158;0.880;2023-04-24T02:43:05;1002.58;;;7.0;37.4027
73306;BME280;61530;51.158;0.880;2023-04-24T02:44:09;1002.55;;;7.0625;37.3395
73306;BME280;61530;51.158;0.880;2023-04-24T02:45:14;1002.59;;;7.0;37.3902
73306;BME280;61530;51.158;0.880;2023-04-24T02:46:17;1002.6;;;7.0;36.1174
73306;BME280;61530;51.158;0.880;2023-04-24T02:47:21;1002.6;;;7.0625;37.2583
73306;BME280;61530;51.158;0.880;2023-04-24T02:48:24;1002.59;;;7.0625;37.2012
73306;BME280;61530;51.158;0.880;2023-04-24T02:49:30;1002.57;;;7.0;37.3756
73306;BME280;61530;51.158;0.880;2023-04-24T02:50:34;1002.58;;;7.0;37.5011
73306;BME280;61530;51.158;0.880;2023-04-24T02:51:37;1002.56;;;7.0625;36.9045
73306;BME280;61530;51.158;0.880;2023-04-24T02:52:41;1002.6;;;7.0625;37.522
73306;BME280;61530;51.158;0.880;2023-04-24T02:53:46;1002.59;;;7.0;38.2094
73306;BME280;61530;51.158;0.880;2023-04-24T02:54:49;1002.63;;;6.9375;38.0429
73306;BME280;61530;51.158;0.880;2023-04-24T02:55:53;1002.72;;;6.875;37.3257
73306;BME280;61530;51.158;0.880;2023-04-24T02:56:57;1002.73;;;6.9375;36.5874
73306;BME280;61530;51.158;0.880;2023-04-24T02:58:02;1002.77;;;6.875;37.6755
73306;BME280;61530;51.158;0.880;2023-04-24T02:59:06;1002.83;;;6.875;36.6828
73306;BME280;61530;51.158;0.880;2023-04-24T03:00:10;1002.83;;;6.9375;37.6981
73306;BME280;61530;51.158;0.880;2023-04-24T03:01:13;1002.84;;;6.875;37.7611
73306;BME280;61530;51.158;0.880;2023-04-24T03:02:18;1002.87;;;6.75;36.1384
73306;BME280;61530;51.158;0.880;2023-04-24T03:03:21;1002.87;;;6.875;36.7973
73306;BME280;61530;51.158;0.880;2023-04-24T03:04:25;1002.92;;;6.8125;37.1985
73306;BME280;61530;51.158;0.880;2023-04-24T03:05:28;1002.96;;;6.9375;36.2466
73306;BME280;61530;51.158;0.880;2023-04-24T03:06:34;1002.99;;;7.0;36.6141
73306;BME280;61530;51.158;0.880;2023-04-24T03:07:38;1002.99;;;7.0;37.0956
73306;BME280;61530;51.158;0.880;2023-04-24T03:08:41;1002.99;;;7.0;37.256
73306;BME280;61530;51.158;0.880;2023-04-24T03:09:45;1003.0;;;7.0;37.6006
73306;BME280;61530;51.158;0.880;2023-04-24T03:10:50;1003.0;;;7.0;37.2522
73306;BME280;61530;51.158;0.880;2023-04-24T03:11:53;1003.01;;;7.0625;37.3486
73306;BME280;61530;51.158;0.880;2023-04-24T03:12:57;1002.99;;;7.0;37.8361
73306;BME280;61530;51.158;0.880;2023-04-24T03:14:00;1002.99;;;7.0625;37.0383
73306;BME280;61530;51.158;0.880;2023-04-24T03:15:07;1002.99;;;7.125;36.4816
73306;BME280;61530;51.158;0.880;2023-04-24T03:16:10;1002.98;;;7.0;38.1339
73306;BME280;61530;51.158;0.880;2023-04-24T03:17:13;1002.96;;;7.0625;37.652
73306;BME280;61530;51.158;0.880;2023-04-24T03:18:17;1002.94;;;7.125;37.5884
73306;BME280;61530;51.158;0.880;2023-04-24T03:19:22;1002.93;;;7.125;36.7078
73306;BME280;61530;51.158;0.880;2023-04-24T03:20:25;1002.95;;;7.0;37.1998
73306;BME280;61530;51.158;0.880;2023-04-24T03:21:29;1002.95;;;7.0625;37.2906
73306;BME280;61530;51.158;0.880;2023-04-24T03:22:32;1002.97;;;7.0625;36.878
73306;BME280;61530;51.158;0.880;2023-04-24T03:23:38;1003.0;;;7.125;37.5831
73306;BME280;61530;51.158;0.880;2023-04-24T03:24:42;1002.99;;;7.0;37.7899
73306;BME280;61530;51.158;0.880;2023-04-24T03:25:45;1003.0;;;7.0;37.2158
73306;BME280;61530;51.158;0.880;2023-04-24T03:26:49;1003.02;;;7.125;36.5336
73306;BME280;61530;51.158;0.880;2023-04-24T03:27:54;1003.02;;;7.0625;37.8182
73306;BME280;61530;51.158;0.880;2023-04-24T03:28:57;1003.06;;;7.1875;37.6699
73306;BME280;61530;51.158;0.880;2023-04-24T03:30:01;1003.07;;;7.125;37.7092
73306;BME280;61530;51.158;0.880;2023-04-24T03:31:04;1003.06;;;7.125;37.7029
73306;BME280;61530;51.158;0.880;2023-04-24T03:32:10;1003.07;;;7.1875;36.8609
73306;BME280;61530;51.158;0.880;2023-04-24T03:33:14;1003.06;;;7.0625;37.7905
73306;BME280;61530;51.158;0.880;2023-04-24T03:34:17;1003.08;;;7.0;37.8989
73306;BME280;61530;51.158;0.880;2023-04-24T03:35:21;1003.09;;;7.0625;37.9963
73306;BME280;61530;51.158;0.880;2023-04-24T03:36:26;1003.11;;;7.125;38.0648
73306;BME280;61530;51.158;0.880;2023-04-24T03:37:29;1003.09;;;7.0625;37.0379
73306;BME280;61530;51.158;0.880;2023-04-24T03:38:33;1003.13;;;7.125;36.6203
73306;BME280;61530;51.158;0.880;2023-04-24T03:39:36;1003.13;;;7.0;36.4867
73306;BME280;61530;51.158;0.880;2023-04-24T03:40:42;1003.14;;;7.125;37.8753
73306;BME280;61530;51.158;0.880;2023-04-24T03:41:46;1003.18;;;7.125;36.5892
73306;BME280;61530;51.158;0.880;2023-04-24T03:42:49;1003.22;;;7.0625;37.0309
73306;BME280;61530;51.158;0.880;2023-04-24T03:43:53;1003.24;;;7.125;37.5078
73306;BME280;61530;51.158;0.880;2023-04-24T03:44:58;1003.24;;;7.1875;36.5147
73306;BME280;61530;51.158;0.880;2023-04-24T03:46:02;1003.23;;;7.125;37.5189
73306;BME280;61530;51.158;0.880;2023-04-24T03:47:05;1003.24;;;7.1875;36.6116
73306;BME280;61530;51.158;0.880;2023-04-24T03:48:08;1003.25;;;7.125;35.9009
73306;BME280;61530;51.158;0.880;2023-04-24T03:49:14;1003.28;;;7.125;36.6693
73306;BME280;61530;51.158;0.880;2023-04-24T03:50:18;1003.32;;;7.1875;36.2794
73306;BME280;61530;51.158;0.880;2023-04-24T03:51:21;1003.35;;;7.1875;37.3815
73306;BME280;61530;51.158;0.880;2023-04-24T03:52:25;1003.37;;;7.0625;37.3585
73306;BME280;61530;51.158;0.880;2023-04-24T03:53:30;1003.38;;;7.1875;37.4678
73306;BME280;61530;51.158;0.880;2023-04-24T03:54:33;1003.41;;;7.25;36.6712
73306;BME280;61530;51.158;0.880;2023-04-24T03:55:37;1003.42;;;7.1875;37.1986
73306;BME280;61530;51.158;0.880;2023-04-24T03:56:40;1003.4;;;7.125;37.4507
73306;BME280;61530;51.158;0.880;2023-04-24T03:57:46;1003.43;;;7.1875;37.7724
73306;BME280;61530;51.158;0.880;2023-04-24T03:58:50;1003.44;;;7.1875;36.8325
73306;BME280;61530;51.158;0.880;2023-04-24T03:59:53;1003.48;;;7.25;36.6015
73306;BME280;61530;51.158;0.880;2023-04-24T04:00:57;1003.49;;;7.25;37.7891
73306;BME280;61530;51.158;0.880;2023-04-24T04:02:02;1003.47;;;7.1875;36.4358
73306;BME280;61530;51.158;0.880;2023-04-24T04:03:05;1003.46;;;7.25;36.3543
73306;BME280;61530;51.158;0.880;2023-04-24T04:04:09;1003.5;;;7.3125;37.6056
73306;BME280;61530;51.158;0.880;2023-04-24T04:05:12;1003.49;;;7.125;36.5858
73306;BME280;61530;51.158;0.880;2023-04-24T04:06:18;1003.52;;;7.1875;36.3835
73306;BME280;61530;51.158;0.880;2023-04-24T04:07:22;1003.54;;;7.1875;36.9276
73306;BME280;61530;51.158;0.880;2023-04-24T04:08:25;1003.54;;;7.1875;37.3981
73306;BME280;61530;51.158;0.880;2023-04-24T04:09:29;1003.52;;;7.1875;37.2023
73306;BME280;61530;51.158;0.880;2023-04-24T04:10:34;1003.54;;;7.1875;36.9208
73306;BME280;61530;51.158;0.880;2023-04-24T04:11:37;1003.57;;;7.25;36.8404
73306;BME280;61530;51.158;0.880;2023-04-24T04:12:41;1003.54;;;7.1875;36.1517
73306;BME280;61530;51.158;0.880;2023-04-24T04:13:44;1003.56;;;7.1875;36.1585
73306;BME280;61530;51.158;0.880;2023-04-24T04:14:50;1003.6;;;7.125;37.2313
73306;BME280;61530;51.158;0.880;2023-04-24T04:15:54;1003.63;;;7.1875;37.1164
73306;BME280;61530;51.158;0.880;2023-04-24T04:16:57;1003.6;;;7.0625;37.5179
73306;BME280;61530;51.158;0.880;2023-04-24T04:18:01;1003.62;;;7.125;36.7887
73306;BME280;61530;51.158;0.880;2023-04-24T04:19:06;1003.59;;;7.0625;35.8577
73306;BME280;61530;51.158;0.880;2023-04-24T04:20:10;1003.63;;;7.0;35.7043
73306;BME280;61530;51.158;0.880;2023-04-24T04:21:13;1003.63;;;7.0625;36.0603
73306;BME280;61530;51.158;0.880;2023-04-24T04:22:16;1003.67;;;7.0;36.3675
73306;BME280;61530;51.158;0.880;2023-04-24T04:23:22;1003.65;;;6.875;36.125
73306;BME280;61530;51.158;0.880;2023-04-24T04:24:26;1003.65;;;6.875;37.7264
73306;BME280;61530;51.158;0.880;2023-04-24T04:25:29;1003.7;;;6.75;36.9466
73306;BME280;61530;51.158;0.880;2023-04-24T04:26:33;1003.75;;;6.8125;36.4187
73306;BME280;61530;51.158;0.880;2023-04-24T04:27:38;1003.78;;;6.875;37.348
73306;BME280;61530;51.158;0.880;2023-04-24T04:28:41;1003.82;;;6.75;36.912
73306;BME280;61530;51.158;0.880;2023-04-24T04:29:45;1003.88;;;6.6875;37.2445
73306;BME280;61530;51.158;0.880;2023-04-24T04:30:48;1003.95;;;6.75;37.2507
73306;BME280;61530;51.158;0.880;2023-04-24T04:31:54;1003.93;;;6.6875;36.982
73306;BME280;61530;51.158;0.880;2023-04-24T04:32:58;1003.91;;;6.625;37.7161
73306;BME280;61530;51.158;0.880;2023-04-24T04:34:01;1003.93;;;6.625;37.2059
73306;BME280;61530;51.158;0.880;2023-04-24T04:35:05;1003.92;;;6.5625;37.2352
73306;BME280;61530;51.158;0.880;2023-04-24T04:36:10;1003.91;;;6.5625;37.2701
73306;BME280;61530;51.158;0.880;2023-04-24T04:37:13;1003.93;;;6.5;38.6512
73306;BME280;61530;51.158;0.880;2023-04-24T04:38:17;1003.94;;;6.5;37.0583
73306;BME280;61530;51.158;0.880;2023-04-24T04:39:20;1003.95;;;6.5;38.0725
73306;BME280;61530;51.158;0.880;2023-04-24T04:40:26;1003.98;;;6.4375;38.7772
73306;BME280;61530;51.158;0.880;2023-04-24T04:41:30;1004.04;;;6.4375;37.9113
73306;BME280;61530;51.158;0.880;2023-04-24T04:42:34;1004.06;;;6.4375;37.487
73306;BME280;61530;51.158;0.880;2023-04-24T04:43:37;1004.08;;;6.375;37.3496
73306;BME280;61530;51.158;0.880;2023-04-24T04:44:42;1004.05;;;6.5;38.4041
73306;BME280;61530;51.158;0.880;2023-04-24T04:45:45;1004.1;;;6.4375;37.6298
73306;BME280;61530;51.158;0.880;2023-04-24T04:46:49;1004.14;;;6.5;37.5784
73306;BME280;61530;51.158;0.880;2023-04-24T04:47:52;1004.18;;;6.4375;37.6729
73306;BME280;61530;51.158;0.880;2023-04-24T04:48:58;1004.2;;;6.4375;38.078
73306;BME280;61530;51.158;0.880;2023-04-24T04:50:02;1004.26;;;6.4375;38.3011
73306;BME280;61530;51.158;0.880;2023-04-24T04:51:05;1004.27;;;6.5;38.3125
73306;BME280;61530;51.158;0.880;2023-04-24T04:52:09;1004.27;;;6.625;38.1349
73306;BME280;61530;51.158;0.880;2023-04-24T04:53:14;1004.26;;;6.5;37.2011
73306;BME280;61530;51.158;0.880;2023-04-24T04:54:17;1004.29;;;6.5625;37.6013
73306;BME280;61530;51.158;0.880;2023-04-24T04:55:21;1004.28;;;6.625;37.8826
73306;BME280;61530;51.158;0.880;2023-04-24T04:56:24;1004.3;;;6.6875;38.301
73306;BME280;61530;51.158;0.880;2023-04-24T04:57:30;1004.31;;;6.6875;37.9802
73306;BME280;61530;51.158;0.880;2023-04-24T04:58:34;1004.32;;;6.6875;38.536
73306;BME280;61530;51.158;0.880;2023-04-24T04:59:37;1004.34;;;6.8125;38.2036
73306;BME280;61530;51.158;0.880;2023-04-24T05:00:41;1004.37;;;6.8125;38.1861
73306;BME280;61530;51.158;0.880;2023-04-24T05:01:46;1004.33;;;6.8125;37.8538
73306;BME280;61530;51.158;0.880;2023-04-24T05:02:49;1004.34;;;6.8125;37.5157
73306;BME280;61530;51.158;0.880;2023-04-24T05:03:53;1004.36;;;6.875;38.2034
73306;BME280;61530;51.158;0.880;2023-04-24T05:04:56;1004.36;;;6.9375;37.8537
73306;BME280;61530;51.158;0.880;2023-04-24T05:06:02;1004.38;;;6.9375;38.2779
73306;BME280;61530;51.158;0.880;2023-04-24T05:07:06;1004.39;;;7.0;38.2442
73306;BME280;61530;51.158;0.880;2023-04-24T05:08:09;1004.4;;;7.0625;38.1413
73306;BME280;61530;51.158;0.880;2023-04-24T05:09:13;1004.41;;;7.0625;38.8458
73306;BME280;61530;51.158;0.880;2023-04-24T05:10:18;1004.45;;;7.125;38.8856
73306;BME280;61530;51.158;0.880;2023-04-24T05:11:21;1004.48;;;7.125;38.3469
73306;BME280;61530;51.158;0.880;2023-04-24T05:12:25;1004.51;;;7.1875;38.3589
73306;BME280;61530;51.158;0.880;2023-04-24T05:13:28;1004.5;;;7.125;38.496
73306;BME280;61530;51.158;0.880;2023-04-24T05:14:34;1004.54;;;7.1875;38.7763
73306;BME280;61530;51.158;0.880;2023-04-24T05:15:38;1004.56;;;7.1875;38.7302
73306;BME280;61530;51.158;0.880;2023-04-24T05:16:41;1004.58;;;7.1875;38.2719
73306;BME280;61530;51.158;0.880;2023-04-24T05:17:45;1004.61;;;7.1875;38.4031
73306;BME280;61530;51.158;0.880;2023-04-24T05:18:50;1004.61;;;7.25;38.2768
73306;BME280;61530;51.158;0.880;2023-04-24T05:19:53;1004.6;;;7.3125;38.2536
73306;BME280;61530;51.158;0.880;2023-04-24T05:20:57;1004.63;;;7.375;38.5405
73306;BME280;61530;51.158;0.880;2023-04-24T05:22:00;1004.63;;;7.3125;38.9249
73306;BME280;61530;51.158;0.880;2023-04-24T05:23:06;1004.64;;;7.3125;38.592
73306;BME280;61530;51.158;0.880;2023-04-24T05:24:10;1004.65;;;7.375;38.0706
73306;BME280;61530;51.158;0.880;2023-04-24T05:25:13;1004.67;;;7.3125;38.8449
73306;BME280;61530;51.158;0.880;2023-04-24T05:26:17;1004.68;;;7.3125;38.644
73306;BME280;61530;51.158;0.880;2023-04-24T05:27:22;1004.72;;;7.375;39.0568
73306;BME280;61530;51.158;0.880;2023-04-24T05:28:26;1004.77;;;7.5;38.8157
73306;BME280;61530;51.158;0.880;2023-04-24T05:29:29;1004.76;;;7.375;38.7354
73306;BME280;61530;51.158;0.880;2023-04-24T05:30:32;1004.78;;;7.4375;38.1555
73306;BME280;61530;51.158;0.880;2023-04-24T05:31:38;1004.79;;;7.5;38.2416
73306;BME280;61530;51.158;0.880;2023-04-24T05:32:42;1004.81;;;7.5625;38.4653
73306;BME280;61530;51.158;0.880;2023-04-24T05:33:45;1004.83;;;7.4375;39.1539
73306;BME280;61530;51.158;0.880;2023-04-24T05:34:49;1004.81;;;7.5;38.632
73306;BME280;61530;51.158;0.880;2023-04-24T05:35:54;1004.8;;;7.5625;38.8392
73306;BME280;61530;51.158;0.880;2023-04-24T05:36:57;1004.85;;;7.5625;39.1542
73306;BME280;61530;51.158;0.880;2023-04-24T05:38:01;1004.88;;;7.5;38.104
73306;BME280;61530;51.158;0.880;2023-04-24T05:39:04;1004.87;;;7.5625;38.7003